sensor_id;sensor_type;location;lat;lon;timestamp;P1;durP1;ratioP1;P2;durP2;ratioP2
40170;SDS011;37650;52.790;18.268;2022-08-19T00:02:27;14.90;;;11.20;;
40170;SDS011;37650;52.790;18.268;2022-08-19T00:05:48;13.70;;;12.30;;
40170;SDS011;37650;52.790;18.268;2022-08-19T00:09:10;13.00;;;11.00;;
40170;SDS011;37650;52.790;18.268;2022-08-19T00:12:32;11.80;;;10.60;;
40170;SDS011;37650;52.790;18.268;2022-08-19T00:15:54;13.50;;;12.10;;
40170;SDS011;37650;52.790;18.268;2022-08-19T00:19:15;13.60;;;11.20;;
40170;SDS011;37650;52.790;18.268;2022-08-19T00:26:10;13.10;;;11.90;;
40170;SDS011;37650;52.790;18.268;2022-08-19T00:29:33;16.60;;;12.70;;
40170;SDS011;37650;52.790;18.268;2022-08-19T00:32:54;14.90;;;12.80;;
40170;SDS011;37650;52.790;18.268;2022-08-19T00:36:18;13.50;;;12.10;;
40170;SDS011;37650;52.790;18.268;2022-08-19T00:39:43;13.90;;;12.30;;
40170;SDS011;37650;52.790;18.268;2022-08-19T00:43:11;14.10;;;12.60;;
40170;SDS011;37650;52.790;18.268;2022-08-19T00:46:37;14.30;;;13.00;;
40170;SDS011;37650;52.790;18.268;2022-08-19T00:50:01;13.60;;;12.20;;
40170;SDS011;37650;52.790;18.268;2022-08-19T00:53:23;15.40;;;13.90;;
40170;SDS011;37650;52.790;18.268;2022-08-19T00:56:45;14.90;;;13.40;;
40170;SDS011;37650;52.790;18.268;2022-08-19T01:00:11;15.00;;;13.00;;
40170;SDS011;37650;52.790;18.268;2022-08-19T01:03:33;14.80;;;12.90;;
40170;SDS011;37650;52.790;18.268;2022-08-19T01:06:57;14.90;;;11.70;;
40170;SDS011;37650;52.790;18.268;2022-08-19T01:10:19;13.00;;;11.70;;
40170;SDS011;37650;52.790;18.268;2022-08-19T01:13:40;13.50;;;12.20;;
40170;SDS011;37650;52.790;18.268;2022-08-19T01:17:01;15.40;;;12.60;;
40170;SDS011;37650;52.790;18.268;2022-08-19T01:20:23;14.90;;;12.30;;
40170;SDS011;37650;52.790;18.268;2022-08-19T01:23:44;12.60;;;11.30;;
40170;SDS011;37650;52.790;18.268;2022-08-19T01:27:05;13.70;;;12.30;;
40170;SDS011;37650;52.790;18.268;2022-08-19T01:30:28;14.90;;;12.10;;
40170;SDS011;37650;52.790;18.268;2022-08-19T01:33:54;13.70;;;12.40;;
40170;SDS011;37650;52.790;18.268;2022-08-19T01:37:15;16.50;;;11.90;;
40170;SDS011;37650;52.790;18.268;2022-08-19T01:40:37;13.50;;;12.10;;
40170;SDS011;37650;52.790;18.268;2022-08-19T01:44:01;13.70;;;12.30;;
40170;SDS011;37650;52.790;18.268;2022-08-19T01:47:24;13.30;;;11.80;;
40170;SDS011;37650;52.790;18.268;2022-08-19T01:50:45;13.80;;;12.30;;
40170;SDS011;37650;52.790;18.268;2022-08-19T01:54:06;14.90;;;12.30;;
40170;SDS011;37650;52.790;18.268;2022-08-19T01:57:27;13.10;;;11.80;;
40170;SDS011;37650;52.790;18.268;2022-08-19T02:00:48;13.30;;;12.00;;
40170;SDS011;37650;52.790;18.268;2022-08-19T02:04:09;15.70;;;11.20;;
40170;SDS011;37650;52.790;18.268;2022-08-19T02:07:30;12.90;;;11.60;;
40170;SDS011;37650;52.790;18.268;2022-08-19T02:10:54;15.80;;;13.80;;
40170;SDS011;37650;52.790;18.268;2022-08-19T02:14:15;12.60;;;11.30;;
40170;SDS011;37650;52.790;18.268;2022-08-19T02:17:37;13.70;;;12.30;;
40170;SDS011;37650;52.790;18.268;2022-08-19T02:24:19;14.10;;;12.70;;
40170;SDS011;37650;52.790;18.268;2022-08-19T02:27:40;13.40;;;12.10;;
40170;SDS011;37650;52.790;18.268;2022-08-19T02:31:02;13.60;;;11.80;;
40170;SDS011;37650;52.790;18.268;2022-08-19T02:34:23;15.80;;;12.60;;
40170;SDS011;37650;52.790;18.268;2022-08-19T02:37:46;15.20;;;12.60;;
40170;SDS011;37650;52.790;18.268;2022-08-19T02:41:27;13.60;;;12.20;;
40170;SDS011;37650;52.790;18.268;2022-08-19T02:44:49;14.50;;;13.10;;
40170;SDS011;37650;52.790;18.268;2022-08-19T02:48:19;13.80;;;12.40;;
40170;SDS011;37650;52.790;18.268;2022-08-19T02:51:43;15.40;;;13.90;;
40170;SDS011;37650;52.790;18.268;2022-08-19T02:55:05;14.30;;;12.60;;
40170;SDS011;37650;52.790;18.268;2022-08-19T02:58:26;14.30;;;12.90;;
40170;SDS011;37650;52.790;18.268;2022-08-19T03:01:50;14.70;;;13.20;;
40170;SDS011;37650;52.790;18.268;2022-08-19T03:05:11;14.50;;;13.00;;
40170;SDS011;37650;52.790;18.268;2022-08-19T03:08:32;15.60;;;12.90;;
40170;SDS011;37650;52.790;18.268;2022-08-19T03:11:53;14.80;;;13.30;;
40170;SDS011;37650;52.790;18.268;2022-08-19T03:15:15;14.90;;;13.30;;
40170;SDS011;37650;52.790;18.268;2022-08-19T03:22:25;14.30;;;12.90;;
40170;SDS011;37650;52.790;18.268;2022-08-19T03:25:46;15.60;;;13.70;;
40170;SDS011;37650;52.790;18.268;2022-08-19T03:29:08;15.20;;;13.60;;
40170;SDS011;37650;52.790;18.268;2022-08-19T03:32:31;14.60;;;13.30;;
40170;SDS011;37650;52.790;18.268;2022-08-19T03:39:26;15.00;;;13.40;;
40170;SDS011;37650;52.790;18.268;2022-08-19T03:42:47;15.00;;;13.50;;
40170;SDS011;37650;52.790;18.268;2022-08-19T03:46:09;15.20;;;13.20;;
40170;SDS011;37650;52.790;18.268;2022-08-19T03:49:31;13.90;;;12.50;;
40170;SDS011;37650;52.790;18.268;2022-08-19T03:52:53;16.60;;;13.40;;
40170;SDS011;37650;52.790;18.268;2022-08-19T03:56:14;16.50;;;13.80;;
40170;SDS011;37650;52.790;18.268;2022-08-19T03:59:35;16.60;;;13.30;;
40170;SDS011;37650;52.790;18.268;2022-08-19T04:02:56;14.60;;;13.20;;
40170;SDS011;37650;52.790;18.268;2022-08-19T04:06:28;14.50;;;13.10;;
40170;SDS011;37650;52.790;18.268;2022-08-19T04:09:49;16.50;;;12.60;;
40170;SDS011;37650;52.790;18.268;2022-08-19T04:13:10;18.10;;;12.70;;
40170;SDS011;37650;52.790;18.268;2022-08-19T04:16:31;14.10;;;12.60;;
40170;SDS011;37650;52.790;18.268;2022-08-19T04:23:13;15.00;;;13.10;;
40170;SDS011;37650;52.790;18.268;2022-08-19T04:26:35;14.40;;;12.90;;
40170;SDS011;37650;52.790;18.268;2022-08-19T04:29:57;14.20;;;12.60;;
40170;SDS011;37650;52.790;18.268;2022-08-19T04:33:18;16.10;;;13.30;;
40170;SDS011;37650;52.790;18.268;2022-08-19T04:36:40;13.00;;;11.70;;
40170;SDS011;37650;52.790;18.268;2022-08-19T04:43:41;14.60;;;12.40;;
40170;SDS011;37650;52.790;18.268;2022-08-19T04:47:02;13.90;;;11.60;;
40170;SDS011;37650;52.790;18.268;2022-08-19T04:50:25;13.10;;;11.70;;
40170;SDS011;37650;52.790;18.268;2022-08-19T04:53:46;12.90;;;11.60;;
40170;SDS011;37650;52.790;18.268;2022-08-19T04:57:09;12.80;;;11.20;;
40170;SDS011;37650;52.790;18.268;2022-08-19T05:00:30;12.60;;;10.70;;
40170;SDS011;37650;52.790;18.268;2022-08-19T05:03:50;11.70;;;10.50;;
40170;SDS011;37650;52.790;18.268;2022-08-19T05:10:36;12.20;;;9.90;;
40170;SDS011;37650;52.790;18.268;2022-08-19T05:13:57;11.60;;;10.20;;
40170;SDS011;37650;52.790;18.268;2022-08-19T05:17:18;11.50;;;9.50;;
40170;SDS011;37650;52.790;18.268;2022-08-19T05:20:38;13.80;;;9.90;;
40170;SDS011;37650;52.790;18.268;2022-08-19T05:24:20;15.40;;;10.40;;
40170;SDS011;37650;52.790;18.268;2022-08-19T05:27:44;12.30;;;10.00;;
40170;SDS011;37650;52.790;18.268;2022-08-19T05:34:26;10.50;;;8.80;;
40170;SDS011;37650;52.790;18.268;2022-08-19T05:37:47;13.70;;;9.10;;
40170;SDS011;37650;52.790;18.268;2022-08-19T05:41:13;13.80;;;9.70;;
40170;SDS011;37650;52.790;18.268;2022-08-19T05:44:38;11.30;;;9.70;;
40170;SDS011;37650;52.790;18.268;2022-08-19T05:48:00;12.00;;;10.00;;
40170;SDS011;37650;52.790;18.268;2022-08-19T05:51:21;13.20;;;10.00;;
40170;SDS011;37650;52.790;18.268;2022-08-19T05:54:43;10.60;;;9.50;;
40170;SDS011;37650;52.790;18.268;2022-08-19T05:58:07;13.30;;;9.80;;
40170;SDS011;37650;52.790;18.268;2022-08-19T06:01:28;11.10;;;9.00;;
40170;SDS011;37650;52.790;18.268;2022-08-19T06:08:10;12.20;;;8.70;;
40170;SDS011;37650;52.790;18.268;2022-08-19T06:11:36;9.60;;;8.60;;
40170;SDS011;37650;52.790;18.268;2022-08-19T06:14:57;9.60;;;8.70;;
40170;SDS011;37650;52.790;18.268;2022-08-19T06:18:18;9.90;;;7.40;;
40170;SDS011;37650;52.790;18.268;2022-08-19T06:21:40;12.20;;;9.00;;
40170;SDS011;37650;52.790;18.268;2022-08-19T06:25:02;14.20;;;8.90;;
40170;SDS011;37650;52.790;18.268;2022-08-19T06:28:24;9.00;;;8.00;;
40170;SDS011;37650;52.790;18.268;2022-08-19T06:31:47;12.70;;;8.90;;
40170;SDS011;37650;52.790;18.268;2022-08-19T06:35:10;11.40;;;8.10;;
40170;SDS011;37650;52.790;18.268;2022-08-19T06:38:31;12.70;;;8.40;;
40170;SDS011;37650;52.790;18.268;2022-08-19T06:41:56;8.20;;;7.30;;
40170;SDS011;37650;52.790;18.268;2022-08-19T06:45:17;9.20;;;8.00;;
40170;SDS011;37650;52.790;18.268;2022-08-19T06:48:39;10.10;;;7.50;;
40170;SDS011;37650;52.790;18.268;2022-08-19T06:52:00;14.10;;;7.90;;
40170;SDS011;37650;52.790;18.268;2022-08-19T06:55:21;11.50;;;7.50;;
40170;SDS011;37650;52.790;18.268;2022-08-19T06:58:42;11.90;;;7.30;;
40170;SDS011;37650;52.790;18.268;2022-08-19T07:05:25;10.00;;;7.10;;
40170;SDS011;37650;52.790;18.268;2022-08-19T07:08:47;10.10;;;7.10;;
40170;SDS011;37650;52.790;18.268;2022-08-19T07:12:09;11.40;;;7.00;;
40170;SDS011;37650;52.790;18.268;2022-08-19T07:15:31;9.90;;;7.30;;
40170;SDS011;37650;52.790;18.268;2022-08-19T07:18:52;14.70;;;7.10;;
40170;SDS011;37650;52.790;18.268;2022-08-19T07:22:12;10.00;;;6.80;;
40170;SDS011;37650;52.790;18.268;2022-08-19T07:25:35;10.90;;;6.70;;
40170;SDS011;37650;52.790;18.268;2022-08-19T07:28:56;8.60;;;6.60;;
40170;SDS011;37650;52.790;18.268;2022-08-19T07:35:38;7.50;;;6.70;;
40170;SDS011;37650;52.790;18.268;2022-08-19T07:39:00;11.00;;;7.30;;
40170;SDS011;37650;52.790;18.268;2022-08-19T07:42:21;7.40;;;5.90;;
40170;SDS011;37650;52.790;18.268;2022-08-19T07:45:42;9.10;;;6.50;;
40170;SDS011;37650;52.790;18.268;2022-08-19T07:49:04;7.50;;;6.20;;
40170;SDS011;37650;52.790;18.268;2022-08-19T07:52:25;11.60;;;6.30;;
40170;SDS011;37650;52.790;18.268;2022-08-19T07:55:45;9.40;;;6.60;;
40170;SDS011;37650;52.790;18.268;2022-08-19T07:59:10;10.80;;;6.10;;
40170;SDS011;37650;52.790;18.268;2022-08-19T08:02:32;11.40;;;6.20;;
40170;SDS011;37650;52.790;18.268;2022-08-19T08:05:52;12.30;;;6.00;;
40170;SDS011;37650;52.790;18.268;2022-08-19T08:09:33;13.80;;;6.00;;
40170;SDS011;37650;52.790;18.268;2022-08-19T08:12:54;8.80;;;6.00;;
40170;SDS011;37650;52.790;18.268;2022-08-19T08:16:15;10.00;;;5.90;;
40170;SDS011;37650;52.790;18.268;2022-08-19T08:19:36;8.30;;;5.80;;
40170;SDS011;37650;52.790;18.268;2022-08-19T08:22:59;10.90;;;5.70;;
40170;SDS011;37650;52.790;18.268;2022-08-19T08:26:39;8.60;;;5.60;;
40170;SDS011;37650;52.790;18.268;2022-08-19T08:33:23;8.10;;;6.10;;
40170;SDS011;37650;52.790;18.268;2022-08-19T08:36:44;9.40;;;5.40;;
40170;SDS011;37650;52.790;18.268;2022-08-19T08:40:12;11.70;;;5.70;;
40170;SDS011;37650;52.790;18.268;2022-08-19T08:43:37;9.00;;;5.90;;
40170;SDS011;37650;52.790;18.268;2022-08-19T08:47:02;10.80;;;5.90;;
40170;SDS011;37650;52.790;18.268;2022-08-19T08:50:27;9.20;;;5.70;;
40170;SDS011;37650;52.790;18.268;2022-08-19T08:53:50;13.00;;;5.60;;
40170;SDS011;37650;52.790;18.268;2022-08-19T08:57:20;11.60;;;5.30;;
40170;SDS011;37650;52.790;18.268;2022-08-19T09:00:46;7.40;;;5.50;;
40170;SDS011;37650;52.790;18.268;2022-08-19T09:04:07;7.30;;;5.40;;
40170;SDS011;37650;52.790;18.268;2022-08-19T09:10:58;8.00;;;5.50;;
40170;SDS011;37650;52.790;18.268;2022-08-19T09:18:01;9.60;;;6.10;;
40170;SDS011;37650;52.790;18.268;2022-08-19T09:21:23;8.20;;;5.60;;
40170;SDS011;37650;52.790;18.268;2022-08-19T09:24:45;8.30;;;5.60;;
40170;SDS011;37650;52.790;18.268;2022-08-19T09:34:47;11.70;;;7.00;;
40170;SDS011;37650;52.790;18.268;2022-08-19T09:38:08;7.00;;;5.80;;
40170;SDS011;37650;52.790;18.268;2022-08-19T09:44:49;13.10;;;6.00;;
40170;SDS011;37650;52.790;18.268;2022-08-19T09:51:30;9.60;;;6.40;;
40170;SDS011;37650;52.790;18.268;2022-08-19T09:54:52;8.70;;;6.00;;
40170;SDS011;37650;52.790;18.268;2022-08-19T09:58:13;8.60;;;6.00;;
40170;SDS011;37650;52.790;18.268;2022-08-19T10:01:34;9.10;;;5.90;;
40170;SDS011;37650;52.790;18.268;2022-08-19T10:08:35;11.60;;;6.60;;
40170;SDS011;37650;52.790;18.268;2022-08-19T10:11:56;12.60;;;6.80;;
40170;SDS011;37650;52.790;18.268;2022-08-19T10:15:17;9.60;;;5.90;;
40170;SDS011;37650;52.790;18.268;2022-08-19T10:18:41;10.50;;;5.60;;
40170;SDS011;37650;52.790;18.268;2022-08-19T10:22:04;10.00;;;6.20;;
40170;SDS011;37650;52.790;18.268;2022-08-19T10:25:25;11.60;;;6.40;;
40170;SDS011;37650;52.790;18.268;2022-08-19T10:28:47;7.20;;;5.90;;
40170;SDS011;37650;52.790;18.268;2022-08-19T10:32:08;6.80;;;5.80;;
40170;SDS011;37650;52.790;18.268;2022-08-19T10:35:32;9.30;;;5.50;;
40170;SDS011;37650;52.790;18.268;2022-08-19T10:42:13;13.90;;;6.20;;
40170;SDS011;37650;52.790;18.268;2022-08-19T10:45:34;9.20;;;5.80;;
40170;SDS011;37650;52.790;18.268;2022-08-19T10:48:58;10.90;;;7.00;;
40170;SDS011;37650;52.790;18.268;2022-08-19T10:52:20;11.70;;;6.70;;
40170;SDS011;37650;52.790;18.268;2022-08-19T10:55:54;9.00;;;6.50;;
40170;SDS011;37650;52.790;18.268;2022-08-19T10:59:35;11.30;;;6.10;;
40170;SDS011;37650;52.790;18.268;2022-08-19T11:02:56;12.20;;;6.50;;
40170;SDS011;37650;52.790;18.268;2022-08-19T11:06:22;8.30;;;6.10;;
40170;SDS011;37650;52.790;18.268;2022-08-19T11:09:43;7.60;;;5.50;;
40170;SDS011;37650;52.790;18.268;2022-08-19T11:13:05;8.70;;;6.00;;
40170;SDS011;37650;52.790;18.268;2022-08-19T11:16:26;8.70;;;5.50;;
40170;SDS011;37650;52.790;18.268;2022-08-19T11:19:50;9.90;;;6.00;;
40170;SDS011;37650;52.790;18.268;2022-08-19T11:23:10;12.20;;;5.70;;
40170;SDS011;37650;52.790;18.268;2022-08-19T11:26:32;8.70;;;5.70;;
40170;SDS011;37650;52.790;18.268;2022-08-19T11:29:54;11.20;;;5.50;;
40170;SDS011;37650;52.790;18.268;2022-08-19T11:33:14;8.90;;;6.20;;
40170;SDS011;37650;52.790;18.268;2022-08-19T11:36:39;9.80;;;5.30;;
40170;SDS011;37650;52.790;18.268;2022-08-19T11:40:01;11.00;;;6.10;;
40170;SDS011;37650;52.790;18.268;2022-08-19T11:43:22;8.30;;;5.90;;
40170;SDS011;37650;52.790;18.268;2022-08-19T11:46:43;7.70;;;4.80;;
40170;SDS011;37650;52.790;18.268;2022-08-19T11:50:06;11.00;;;6.40;;
40170;SDS011;37650;52.790;18.268;2022-08-19T11:53:29;14.00;;;6.40;;
40170;SDS011;37650;52.790;18.268;2022-08-19T11:56:50;12.30;;;6.20;;
40170;SDS011;37650;52.790;18.268;2022-08-19T12:00:11;10.00;;;5.40;;
40170;SDS011;37650;52.790;18.268;2022-08-19T12:03:33;12.20;;;5.80;;
40170;SDS011;37650;52.790;18.268;2022-08-19T12:06:54;8.80;;;5.90;;
40170;SDS011;37650;52.790;18.268;2022-08-19T12:10:15;9.10;;;6.40;;
40170;SDS011;37650;52.790;18.268;2022-08-19T12:13:37;9.90;;;5.40;;
40170;SDS011;37650;52.790;18.268;2022-08-19T12:16:59;11.90;;;5.50;;
40170;SDS011;37650;52.790;18.268;2022-08-19T12:20:20;16.60;;;6.10;;
40170;SDS011;37650;52.790;18.268;2022-08-19T12:23:41;11.30;;;5.70;;
40170;SDS011;37650;52.790;18.268;2022-08-19T12:27:02;11.80;;;5.90;;
40170;SDS011;37650;52.790;18.268;2022-08-19T12:30:23;9.10;;;5.60;;
40170;SDS011;37650;52.790;18.268;2022-08-19T12:33:44;8.00;;;5.60;;
40170;SDS011;37650;52.790;18.268;2022-08-19T12:37:05;10.10;;;5.00;;
40170;SDS011;37650;52.790;18.268;2022-08-19T12:40:28;10.60;;;5.90;;
40170;SDS011;37650;52.790;18.268;2022-08-19T12:43:49;13.90;;;6.20;;
40170;SDS011;37650;52.790;18.268;2022-08-19T12:47:12;11.10;;;4.60;;
40170;SDS011;37650;52.790;18.268;2022-08-19T12:50:34;11.10;;;5.60;;
40170;SDS011;37650;52.790;18.268;2022-08-19T12:53:57;9.60;;;5.70;;
40170;SDS011;37650;52.790;18.268;2022-08-19T12:57:25;10.20;;;4.50;;
40170;SDS011;37650;52.790;18.268;2022-08-19T13:00:47;12.60;;;4.80;;
40170;SDS011;37650;52.790;18.268;2022-08-19T13:04:08;15.00;;;4.90;;
40170;SDS011;37650;52.790;18.268;2022-08-19T13:07:31;12.00;;;4.80;;
40170;SDS011;37650;52.790;18.268;2022-08-19T13:10:51;12.40;;;5.00;;
40170;SDS011;37650;52.790;18.268;2022-08-19T13:14:13;9.10;;;4.80;;
40170;SDS011;37650;52.790;18.268;2022-08-19T13:17:34;8.00;;;4.60;;
40170;SDS011;37650;52.790;18.268;2022-08-19T13:20:56;12.40;;;4.90;;
40170;SDS011;37650;52.790;18.268;2022-08-19T13:24:17;8.50;;;4.90;;
40170;SDS011;37650;52.790;18.268;2022-08-19T13:27:39;10.20;;;4.90;;
40170;SDS011;37650;52.790;18.268;2022-08-19T13:31:00;8.10;;;4.50;;
40170;SDS011;37650;52.790;18.268;2022-08-19T13:34:39;19.40;;;5.40;;
40170;SDS011;37650;52.790;18.268;2022-08-19T13:38:00;9.40;;;4.20;;
40170;SDS011;37650;52.790;18.268;2022-08-19T13:41:26;11.70;;;4.80;;
40170;SDS011;37650;52.790;18.268;2022-08-19T13:44:47;8.70;;;4.60;;
40170;SDS011;37650;52.790;18.268;2022-08-19T13:48:07;11.30;;;3.90;;
40170;SDS011;37650;52.790;18.268;2022-08-19T13:51:29;12.40;;;4.50;;
40170;SDS011;37650;52.790;18.268;2022-08-19T13:54:49;9.40;;;4.20;;
40170;SDS011;37650;52.790;18.268;2022-08-19T13:58:11;13.50;;;4.70;;
40170;SDS011;37650;52.790;18.268;2022-08-19T14:01:32;10.10;;;5.00;;
40170;SDS011;37650;52.790;18.268;2022-08-19T14:04:53;9.20;;;4.40;;
40170;SDS011;37650;52.790;18.268;2022-08-19T14:08:14;14.60;;;4.60;;
40170;SDS011;37650;52.790;18.268;2022-08-19T14:11:35;12.20;;;4.70;;
40170;SDS011;37650;52.790;18.268;2022-08-19T14:14:56;11.20;;;5.50;;
40170;SDS011;37650;52.790;18.268;2022-08-19T14:18:17;8.40;;;4.70;;
40170;SDS011;37650;52.790;18.268;2022-08-19T14:21:38;12.60;;;5.10;;
40170;SDS011;37650;52.790;18.268;2022-08-19T14:25:01;9.00;;;5.10;;
40170;SDS011;37650;52.790;18.268;2022-08-19T14:28:22;11.30;;;5.10;;
40170;SDS011;37650;52.790;18.268;2022-08-19T14:31:43;13.90;;;5.10;;
40170;SDS011;37650;52.790;18.268;2022-08-19T14:35:05;12.40;;;5.10;;
40170;SDS011;37650;52.790;18.268;2022-08-19T14:38:29;9.60;;;4.80;;
40170;SDS011;37650;52.790;18.268;2022-08-19T14:41:51;10.30;;;4.60;;
40170;SDS011;37650;52.790;18.268;2022-08-19T14:45:12;13.10;;;4.90;;
40170;SDS011;37650;52.790;18.268;2022-08-19T14:48:33;10.80;;;4.90;;
40170;SDS011;37650;52.790;18.268;2022-08-19T14:51:55;9.60;;;5.40;;
40170;SDS011;37650;52.790;18.268;2022-08-19T14:55:16;17.10;;;5.50;;
40170;SDS011;37650;52.790;18.268;2022-08-19T14:58:38;9.80;;;5.00;;
40170;SDS011;37650;52.790;18.268;2022-08-19T15:02:00;9.30;;;4.90;;
40170;SDS011;37650;52.790;18.268;2022-08-19T15:05:21;13.50;;;5.30;;
40170;SDS011;37650;52.790;18.268;2022-08-19T15:08:43;9.10;;;4.60;;
40170;SDS011;37650;52.790;18.268;2022-08-19T15:12:06;9.20;;;4.70;;
40170;SDS011;37650;52.790;18.268;2022-08-19T15:15:27;9.40;;;5.00;;
40170;SDS011;37650;52.790;18.268;2022-08-19T15:18:49;12.40;;;4.70;;
40170;SDS011;37650;52.790;18.268;2022-08-19T15:22:10;15.20;;;5.40;;
40170;SDS011;37650;52.790;18.268;2022-08-19T15:25:31;9.50;;;4.70;;
40170;SDS011;37650;52.790;18.268;2022-08-19T15:28:53;14.50;;;4.80;;
40170;SDS011;37650;52.790;18.268;2022-08-19T15:32:15;7.60;;;4.50;;
40170;SDS011;37650;52.790;18.268;2022-08-19T15:35:36;9.80;;;4.40;;
40170;SDS011;37650;52.790;18.268;2022-08-19T15:38:57;12.00;;;5.00;;
40170;SDS011;37650;52.790;18.268;2022-08-19T15:42:18;15.20;;;5.10;;
40170;SDS011;37650;52.790;18.268;2022-08-19T15:45:40;8.30;;;4.60;;
40170;SDS011;37650;52.790;18.268;2022-08-19T15:53:37;16.80;;;5.10;;
40170;SDS011;37650;52.790;18.268;2022-08-19T15:57:01;14.40;;;5.10;;
40170;SDS011;37650;52.790;18.268;2022-08-19T16:04:20;13.50;;;4.60;;
40170;SDS011;37650;52.790;18.268;2022-08-19T16:08:00;9.70;;;4.90;;
40170;SDS011;37650;52.790;18.268;2022-08-19T16:11:25;10.80;;;5.00;;
40170;SDS011;37650;52.790;18.268;2022-08-19T16:14:50;17.80;;;4.80;;
40170;SDS011;37650;52.790;18.268;2022-08-19T16:18:18;18.10;;;5.60;;
40170;SDS011;37650;52.790;18.268;2022-08-19T16:21:48;17.70;;;5.20;;
40170;SDS011;37650;52.790;18.268;2022-08-19T16:25:12;12.20;;;4.60;;
40170;SDS011;37650;52.790;18.268;2022-08-19T16:28:37;12.80;;;4.90;;
40170;SDS011;37650;52.790;18.268;2022-08-19T16:31:58;15.40;;;5.10;;
40170;SDS011;37650;52.790;18.268;2022-08-19T16:38:41;10.60;;;4.50;;
40170;SDS011;37650;52.790;18.268;2022-08-19T16:42:01;13.00;;;4.70;;
40170;SDS011;37650;52.790;18.268;2022-08-19T16:45:22;13.00;;;4.70;;
40170;SDS011;37650;52.790;18.268;2022-08-19T16:48:43;8.20;;;4.00;;
40170;SDS011;37650;52.790;18.268;2022-08-19T17:26:25;13.00;;;5.30;;
40170;SDS011;37650;52.790;18.268;2022-08-19T17:30:30;16.10;;;5.00;;
40170;SDS011;37650;52.790;18.268;2022-08-19T17:33:51;10.90;;;5.60;;
40170;SDS011;37650;52.790;18.268;2022-08-19T17:37:12;12.00;;;6.00;;
40170;SDS011;37650;52.790;18.268;2022-08-19T17:40:36;13.10;;;5.70;;
40170;SDS011;37650;52.790;18.268;2022-08-19T17:43:58;13.60;;;5.70;;
40170;SDS011;37650;52.790;18.268;2022-08-19T17:47:19;23.30;;;5.70;;
40170;SDS011;37650;52.790;18.268;2022-08-19T17:50:45;21.10;;;5.90;;
40170;SDS011;37650;52.790;18.268;2022-08-19T17:58:31;11.10;;;6.30;;
40170;SDS011;37650;52.790;18.268;2022-08-19T18:06:10;13.50;;;6.20;;
40170;SDS011;37650;52.790;18.268;2022-08-19T18:09:33;13.80;;;6.20;;
40170;SDS011;37650;52.790;18.268;2022-08-19T18:12:55;14.30;;;6.50;;
40170;SDS011;37650;52.790;18.268;2022-08-19T18:16:16;12.80;;;5.90;;
40170;SDS011;37650;52.790;18.268;2022-08-19T18:19:39;14.90;;;7.00;;
40170;SDS011;37650;52.790;18.268;2022-08-19T18:23:00;12.40;;;6.80;;
40170;SDS011;37650;52.790;18.268;2022-08-19T18:26:21;18.90;;;6.80;;
40170;SDS011;37650;52.790;18.268;2022-08-19T18:29:42;13.60;;;6.70;;
40170;SDS011;37650;52.790;18.268;2022-08-19T18:33:05;14.10;;;6.80;;
40170;SDS011;37650;52.790;18.268;2022-08-19T18:36:40;14.90;;;6.90;;
40170;SDS011;37650;52.790;18.268;2022-08-19T18:40:04;10.60;;;6.60;;
40170;SDS011;37650;52.790;18.268;2022-08-19T18:43:45;13.30;;;7.40;;
40170;SDS011;37650;52.790;18.268;2022-08-19T18:47:24;18.20;;;8.00;;
40170;SDS011;37650;52.790;18.268;2022-08-19T18:51:03;16.90;;;7.40;;
40170;SDS011;37650;52.790;18.268;2022-08-19T18:54:25;14.70;;;7.30;;
40170;SDS011;37650;52.790;18.268;2022-08-19T18:57:48;13.80;;;8.00;;
40170;SDS011;37650;52.790;18.268;2022-08-19T19:01:16;18.10;;;9.90;;
40170;SDS011;37650;52.790;18.268;2022-08-19T19:04:38;19.50;;;8.90;;
40170;SDS011;37650;52.790;18.268;2022-08-19T19:08:02;18.60;;;7.90;;
40170;SDS011;37650;52.790;18.268;2022-08-19T19:11:28;21.70;;;8.70;;
40170;SDS011;37650;52.790;18.268;2022-08-19T19:14:49;19.20;;;7.30;;
40170;SDS011;37650;52.790;18.268;2022-08-19T19:18:10;19.30;;;8.50;;
40170;SDS011;37650;52.790;18.268;2022-08-19T19:21:33;19.80;;;9.40;;
40170;SDS011;37650;52.790;18.268;2022-08-19T19:24:55;14.20;;;8.10;;
40170;SDS011;37650;52.790;18.268;2022-08-19T19:28:20;18.10;;;8.50;;
40170;SDS011;37650;52.790;18.268;2022-08-19T19:31:45;17.20;;;8.20;;
40170;SDS011;37650;52.790;18.268;2022-08-19T19:35:08;14.80;;;8.20;;
40170;SDS011;37650;52.790;18.268;2022-08-19T19:38:31;14.30;;;8.60;;
40170;SDS011;37650;52.790;18.268;2022-08-19T19:41:52;15.70;;;8.10;;
40170;SDS011;37650;52.790;18.268;2022-08-19T19:45:17;17.00;;;8.70;;
40170;SDS011;37650;52.790;18.268;2022-08-19T19:48:43;16.80;;;9.90;;
40170;SDS011;37650;52.790;18.268;2022-08-19T19:52:04;13.50;;;9.40;;
40170;SDS011;37650;52.790;18.268;2022-08-19T19:55:27;20.70;;;10.10;;
40170;SDS011;37650;52.790;18.268;2022-08-19T19:58:48;12.60;;;10.50;;
40170;SDS011;37650;52.790;18.268;2022-08-19T20:02:10;30.20;;;11.40;;
40170;SDS011;37650;52.790;18.268;2022-08-19T20:05:35;15.60;;;11.60;;
40170;SDS011;37650;52.790;18.268;2022-08-19T20:08:56;13.50;;;12.20;;
40170;SDS011;37650;52.790;18.268;2022-08-19T20:12:35;13.60;;;10.50;;
40170;SDS011;37650;52.790;18.268;2022-08-19T20:15:58;14.30;;;11.20;;
40170;SDS011;37650;52.790;18.268;2022-08-19T20:19:20;12.60;;;10.40;;
40170;SDS011;37650;52.790;18.268;2022-08-19T20:22:43;16.00;;;11.50;;
40170;SDS011;37650;52.790;18.268;2022-08-19T20:26:08;14.30;;;11.00;;
40170;SDS011;37650;52.790;18.268;2022-08-19T20:29:30;41.70;;;36.60;;
40170;SDS011;37650;52.790;18.268;2022-08-19T20:32:52;13.90;;;11.80;;
40170;SDS011;37650;52.790;18.268;2022-08-19T20:36:16;14.30;;;11.40;;
40170;SDS011;37650;52.790;18.268;2022-08-19T20:39:36;16.10;;;14.10;;
40170;SDS011;37650;52.790;18.268;2022-08-19T20:42:57;21.60;;;11.80;;
40170;SDS011;37650;52.790;18.268;2022-08-19T20:46:18;17.90;;;11.50;;
40170;SDS011;37650;52.790;18.268;2022-08-19T20:49:39;13.30;;;10.20;;
40170;SDS011;37650;52.790;18.268;2022-08-19T20:53:06;14.00;;;10.80;;
40170;SDS011;37650;52.790;18.268;2022-08-19T20:56:29;18.70;;;11.40;;
40170;SDS011;37650;52.790;18.268;2022-08-19T20:59:50;15.10;;;11.40;;
40170;SDS011;37650;52.790;18.268;2022-08-19T21:03:12;15.10;;;12.00;;
40170;SDS011;37650;52.790;18.268;2022-08-19T21:06:35;14.00;;;11.80;;
40170;SDS011;37650;52.790;18.268;2022-08-19T21:09:57;15.20;;;12.60;;
40170;SDS011;37650;52.790;18.268;2022-08-19T21:13:21;18.00;;;13.00;;
40170;SDS011;37650;52.790;18.268;2022-08-19T21:16:42;14.70;;;12.90;;
40170;SDS011;37650;52.790;18.268;2022-08-19T21:20:03;16.00;;;12.00;;
40170;SDS011;37650;52.790;18.268;2022-08-19T21:23:26;15.30;;;11.50;;
40170;SDS011;37650;52.790;18.268;2022-08-19T21:26:47;15.30;;;10.60;;
40170;SDS011;37650;52.790;18.268;2022-08-19T21:30:08;15.00;;;11.50;;
40170;SDS011;37650;52.790;18.268;2022-08-19T21:36:51;17.50;;;12.90;;
40170;SDS011;37650;52.790;18.268;2022-08-19T21:40:12;20.00;;;13.90;;
40170;SDS011;37650;52.790;18.268;2022-08-19T21:43:35;17.80;;;13.20;;
40170;SDS011;37650;52.790;18.268;2022-08-19T21:46:56;19.30;;;13.40;;
40170;SDS011;37650;52.790;18.268;2022-08-19T21:50:17;18.20;;;12.20;;
40170;SDS011;37650;52.790;18.268;2022-08-19T21:53:38;16.70;;;13.40;;